Time;durP1;ratioP1;P1;durP2;ratioP2;P2;SDS_P1;SDS_P2;PMS_P1;PMS_P2;Temp;Humidity;BMP_temperature;BMP_pressure;BME280_temperature;BME280_humidity;BME280_pressure;Samples;Min_cycle;Max_cycle;Signal;HPM_P1;HPM_P2
2022/03/25 00:01:12;;;;;;;;;;;;;;;10.52;66.45;101590.25;4979796;28;20012;-92
2022/03/25 00:03:38;;;;;;;;;;;;;;;10.52;66.49;101585.03;4984507;28;19972;-92
2022/03/25 00:06:04;;;;;;;;;;;;;;;10.60;66.22;101594.28;4980654;28;20020;-92
2022/03/25 00:08:45;;;;;;;;;;;;;;;10.62;65.81;101586.56;4999455;28;19918;-92
2022/03/25 00:11:14;;;;;;;;;;;;;;;10.75;65.18;101604.84;4990429;28;19922;-92
2022/03/25 00:13:51;;;;;;;;;;;;;;;10.67;64.94;101578.22;4994628;28;19934;-91
2022/03/25 00:16:17;;;;;;;;;;;;;;;10.69;64.17;101583.53;4975459;28;20029;-92
2022/03/25 00:18:56;;;;;;;;;;;;;;;10.67;64.41;101595.59;4984566;28;20387;-93
2022/03/25 00:21:31;;;;;;;;;;;;;;;10.70;64.13;101570.59;4977275;28;20020;-92
2022/03/25 00:24:04;;;;;;;;;;;;;;;10.74;63.89;101584.75;4994255;28;20008;-92
2022/03/25 00:26:38;;;;;;;;;;;;;;;10.67;63.98;101586.06;4978349;28;20391;-92
2022/03/25 00:29:12;;;;;;;;;;;;;;;10.74;64.23;101563.88;4978179;28;19928;-93
2022/03/25 00:31:45;;;;;;;;;;;;;;;10.72;64.06;101594.22;4978243;28;20379;-92
2022/03/25 00:34:18;;;;;;;;;;;;;;;10.72;63.94;101575.91;4977788;28;19957;-91
2022/03/25 00:36:44;;;;;;;;;;;;;;;10.71;63.58;101571.47;4977768;28;19922;-92
2022/03/25 00:39:18;;;;;;;;;;;;;;;10.71;63.44;101589.75;4968886;28;19996;-91
2022/03/25 00:41:56;;;;;;;;;;;;;;;10.68;63.67;101579.13;4977209;28;19976;-90
2022/03/25 00:44:32;;;;;;;;;;;;;;;10.69;63.04;101593.97;4977670;28;19929;-90
2022/03/25 00:47:02;;;;;;;;;;;;;;;10.66;63.15;101581.63;4977809;28;19972;-92
2022/03/25 00:49:33;;;;;;;;;;;;;;;10.74;63.16;101576.94;4995006;28;19922;-91
2022/03/25 00:52:03;;;;;;;;;;;;;;;10.75;63.14;101595.31;4977705;28;19922;-91
2022/03/25 00:54:41;;;;;;;;;;;;;;;10.74;63.51;101583.03;4977500;28;20004;-90
2022/03/25 00:57:16;;;;;;;;;;;;;;;10.69;63.63;101587.06;4982278;28;19937;-90
2022/03/25 00:59:57;;;;;;;;;;;;;;;10.68;63.18;101580.03;4993973;28;20013;-90
2022/03/25 01:02:30;;;;;;;;;;;;;;;10.66;62.88;101599.91;4993363;28;19918;-90
2022/03/25 01:04:57;;;;;;;;;;;;;;;10.65;63.14;101581.56;4977322;28;19925;-90
2022/03/25 01:07:36;;;;;;;;;;;;;;;10.68;62.72;101597.41;4977372;28;20369;-90
2022/03/25 01:10:05;;;;;;;;;;;;;;;10.70;62.81;101588.88;4977378;28;19924;-92
2022/03/25 01:12:37;;;;;;;;;;;;;;;10.68;62.66;101593.09;4977535;28;20366;-91
2022/03/25 01:15:07;;;;;;;;;;;;;;;10.62;62.97;101600.50;4977857;28;19945;-91
2022/03/25 01:17:46;;;;;;;;;;;;;;;10.67;63.17;101598.19;4978957;28;19928;-91
2022/03/25 01:20:18;;;;;;;;;;;;;;;10.67;63.24;101606.97;4977375;28;19961;-90
2022/03/25 01:22:50;;;;;;;;;;;;;;;10.72;63.16;101620.34;4977177;28;20347;-90
2022/03/25 01:25:18;;;;;;;;;;;;;;;10.69;63.05;101596.59;4993498;28;20296;-92
2022/03/25 01:27:49;;;;;;;;;;;;;;;10.64;62.83;101611.06;4977019;28;19928;-91
2022/03/25 01:30:16;;;;;;;;;;;;;;;10.68;62.76;101618.31;4993257;28;20326;-91
2022/03/25 01:35:38;;;;;;;;;;;;;;;10.68;62.85;101626.16;4986139;28;19924;-93
2022/03/25 01:38:25;;;;;;;;;;;;;;;10.72;62.60;101608.16;4977476;28;19918;-92
2022/03/25 01:41:00;;;;;;;;;;;;;;;10.66;62.85;101619.91;4976010;28;19972;-91
2022/03/25 01:43:40;;;;;;;;;;;;;;;10.67;62.96;101603.41;4976435;28;20296;-93
2022/03/25 01:46:16;;;;;;;;;;;;;;;10.64;63.24;101606.75;4977388;28;20399;-95
2022/03/25 01:51:44;;;;;;;;;;;;;;;10.62;62.30;101605.72;4993641;28;20019;-91
2022/03/25 01:54:28;;;;;;;;;;;;;;;10.60;62.13;101599.50;4976071;28;20416;-92
2022/03/25 02:02:59;;;;;;;;;;;;;;;10.68;62.24;101623.53;4994039;28;19933;-90
2022/03/25 02:08:30;;;;;;;;;;;;;;;10.66;62.52;101626.03;4993826;28;20410;-89
2022/03/25 02:10:58;;;;;;;;;;;;;;;10.61;62.71;101629.16;4975978;28;19922;-91
2022/03/25 02:13:30;;;;;;;;;;;;;;;10.59;62.31;101622.13;4993550;28;20007;-92
2022/03/25 02:15:55;;;;;;;;;;;;;;;10.55;62.15;101611.34;4992941;28;19922;-94
2022/03/25 02:18:42;;;;;;;;;;;;;;;10.54;62.72;101630.44;4975235;28;19928;-93
2022/03/25 02:21:13;;;;;;;;;;;;;;;10.57;61.75;101628.03;4961362;28;19922;-91
2022/03/25 02:24:09;;;;;;;;;;;;;;;10.56;61.45;101626.22;4975474;28;20311;-92
2022/03/25 02:26:36;;;;;;;;;;;;;;;10.59;61.65;101623.81;4973381;28;19979;-93
2022/03/25 02:29:16;;;;;;;;;;;;;;;10.60;61.98;101630.84;4976755;28;20445;-94
2022/03/25 02:31:50;;;;;;;;;;;;;;;10.55;62.23;101637.47;4976413;28;19921;-94
2022/03/25 02:34:24;;;;;;;;;;;;;;;10.49;62.50;101635.34;4968423;28;19922;-93
2022/03/25 02:37:00;;;;;;;;;;;;;;;10.55;62.18;101640.09;4982804;28;19929;-94
2022/03/25 02:39:31;;;;;;;;;;;;;;;10.59;62.44;101647.34;4973089;28;19977;-94
2022/03/25 02:42:02;;;;;;;;;;;;;;;10.60;61.75;101641.28;4974516;28;19922;-94
2022/03/25 02:44:31;;;;;;;;;;;;;;;10.55;61.79;101635.75;4976901;28;20352;-94
2022/03/25 02:47:11;;;;;;;;;;;;;;;10.58;61.54;101643.81;4993468;28;20406;-94
2022/03/25 02:55:42;;;;;;;;;;;;;;;10.56;62.44;101653.25;4996021;28;19928;-94
2022/03/25 02:58:24;;;;;;;;;;;;;;;10.49;62.21;101651.00;4980353;28;19922;-94
2022/03/25 03:01:16;;;;;;;;;;;;;;;10.54;62.18;101660.09;4980085;28;20029;-93
2022/03/25 03:06:44;;;;;;;;;;;;;;;10.56;62.00;101657.56;4988248;28;19968;-95
2022/03/25 03:09:10;;;;;;;;;;;;;;;10.54;62.07;101662.69;4983043;28;19918;-91
2022/03/25 03:11:43;;;;;;;;;;;;;;;10.52;62.22;101659.06;4979236;28;19918;-92
2022/03/25 03:14:20;;;;;;;;;;;;;;;10.50;62.07;101658.06;4975286;28;19929;-94
2022/03/25 03:16:46;;;;;;;;;;;;;;;10.56;62.07;101660.16;4992236;28;20289;-93
2022/03/25 03:19:31;;;;;;;;;;;;;;;10.53;62.61;101660.88;4992352;28;19976;-91
2022/03/25 03:22:06;;;;;;;;;;;;;;;10.52;62.47;101671.19;4977568;28;19922;-93
2022/03/25 03:24:49;;;;;;;;;;;;;;;10.51;62.20;101657.25;4987430;28;19922;-95
2022/03/25 03:27:15;;;;;;;;;;;;;;;10.54;62.45;101662.69;4991869;28;19929;-91
2022/03/25 03:29:51;;;;;;;;;;;;;;;10.60;61.87;101667.41;4975897;28;19976;-92
2022/03/25 03:32:19;;;;;;;;;;;;;;;10.52;62.21;101656.47;4990459;28;19922;-91
2022/03/25 03:37:47;;;;;;;;;;;;;;;10.52;61.73;101658.13;4976919;28;19981;-93
2022/03/25 03:40:33;;;;;;;;;;;;;;;10.52;62.42;101656.47;4972541;28;19919;-92
2022/03/25 03:43:13;;;;;;;;;;;;;;;10.49;62.34;101664.06;4957447;29;19918;-94
2022/03/25 03:45:42;;;;;;;;;;;;;;;10.52;62.23;101673.81;4973437;28;20440;-94
2022/03/25 03:48:30;;;;;;;;;;;;;;;10.47;62.48;101668.28;4990796;28;19922;-93
2022/03/25 03:51:03;;;;;;;;;;;;;;;10.49;62.42;101673.63;4976553;28;19925;-93
2022/03/25 03:53:38;;;;;;;;;;;;;;;10.52;61.92;101671.19;4976162;28;19922;-93
2022/03/25 03:56:07;;;;;;;;;;;;;;;10.51;62.01;101674.63;4955201;28;19980;-92
2022/03/25 03:58:44;;;;;;;;;;;;;;;10.59;61.64;101668.22;4976323;28;19918;-94
2022/03/25 04:04:12;;;;;;;;;;;;;;;10.62;61.75;101672.75;4977080;28;19929;-94
2022/03/25 04:06:56;;;;;;;;;;;;;;;10.54;62.16;101675.75;4990473;28;19922;-92
2022/03/25 04:12:21;;;;;;;;;;;;;;;10.52;62.29;101677.34;4976385;28;20016;-92
2022/03/25 04:14:51;;;;;;;;;;;;;;;10.50;62.40;101678.97;4986185;28;19922;-92
2022/03/25 04:17:19;;;;;;;;;;;;;;;10.52;62.05;101671.19;4969243;28;19922;-91
2022/03/25 04:19:45;;;;;;;;;;;;;;;10.55;61.48;101674.03;4978006;28;19928;-91
2022/03/25 04:22:11;;;;;;;;;;;;;;;10.57;61.68;101678.56;4977417;28;19922;-91
2022/03/25 04:24:37;;;;;;;;;;;;;;;10.53;61.65;101681.75;4977732;28;20299;-91
2022/03/25 04:27:09;;;;;;;;;;;;;;;10.50;61.40;101701.56;4978325;28;19961;-91
2022/03/25 04:29:35;;;;;;;;;;;;;;;10.47;61.83;101696.09;4977853;28;19929;-91
2022/03/25 04:32:24;;;;;;;;;;;;;;;10.48;62.07;101697.94;4977473;28;19921;-91
2022/03/25 04:34:49;;;;;;;;;;;;;;;10.49;62.19;101702.34;4988783;28;19980;-90
2022/03/25 04:37:36;;;;;;;;;;;;;;;10.47;62.21;101704.84;4976668;28;20473;-91
2022/03/25 04:40:17;;;;;;;;;;;;;;;10.46;62.32;101715.19;4977033;28;19921;-91
2022/03/25 04:43:10;;;;;;;;;;;;;;;10.45;61.85;101715.97;4978592;28;19924;-91
2022/03/25 04:45:58;;;;;;;;;;;;;;;10.51;61.52;101719.03;4977235;28;19957;-91
2022/03/25 04:48:32;;;;;;;;;;;;;;;10.48;61.74;101711.88;4974531;28;19922;-90
2022/03/25 04:50:58;;;;;;;;;;;;;;;10.49;61.73;101715.41;4985312;28;19925;-90
2022/03/25 04:53:25;;;;;;;;;;;;;;;10.61;61.17;101726.69;4961404;28;19918;-91
2022/03/25 04:55:59;;;;;;;;;;;;;;;10.50;62.01;101733.78;4960702;28;19928;-91
2022/03/25 04:58:27;;;;;;;;;;;;;;;10.56;62.20;101735.91;4977864;28;19976;-92
2022/03/25 05:01:05;;;;;;;;;;;;;;;10.41;62.12;101735.75;4977239;28;19922;-93
2022/03/25 05:03:47;;;;;;;;;;;;;;;10.47;61.87;101730.94;4993838;28;19925;-91
2022/03/25 05:06:13;;;;;;;;;;;;;;;10.43;61.99;101749.81;4980878;28;20376;-91
2022/03/25 05:11:43;;;;;;;;;;;;;;;10.51;61.33;101752.97;4994663;28;19929;-92
2022/03/25 05:17:12;;;;;;;;;;;;;;;10.48;61.50;101758.00;4994029;28;20020;-92
2022/03/25 05:19:46;;;;;;;;;;;;;;;10.53;61.90;101754.00;4976926;28;19953;-91
2022/03/25 05:22:25;;;;;;;;;;;;;;;10.57;61.89;101759.53;4977105;28;20017;-91
2022/03/25 05:27:55;;;;;;;;;;;;;;;10.42;62.05;101762.78;4975295;28;19976;-92
2022/03/25 05:30:28;;;;;;;;;;;;;;;10.39;62.19;101766.06;4959348;28;20012;-92
2022/03/25 05:33:17;;;;;;;;;;;;;;;10.45;62.18;101763.88;4991419;28;19969;-90
2022/03/25 05:35:43;;;;;;;;;;;;;;;10.46;61.68;101773.56;4983738;28;20402;-92
2022/03/25 05:38:10;;;;;;;;;;;;;;;10.48;61.61;101773.66;4977533;28;19917;-92
2022/03/25 05:40:39;;;;;;;;;;;;;;;10.49;61.33;101780.69;4976496;28;19918;-92
2022/03/25 05:43:09;;;;;;;;;;;;;;;10.47;61.81;101783.19;4992279;28;20303;-92
2022/03/25 05:45:49;;;;;;;;;;;;;;;10.48;61.89;101787.63;4981418;28;19917;-92
2022/03/25 05:48:26;;;;;;;;;;;;;;;10.55;61.72;101784.63;4975379;28;19922;-91
2022/03/25 05:50:58;;;;;;;;;;;;;;;10.51;62.37;101787.81;4975482;28;19924;-88
2022/03/25 05:53:32;;;;;;;;;;;;;;;10.45;62.01;101794.31;4959651;28;20408;-91
2022/03/25 05:56:16;;;;;;;;;;;;;;;10.48;61.87;101794.56;4960568;28;19918;-91
2022/03/25 05:58:47;;;;;;;;;;;;;;;10.46;61.71;101801.38;4965072;28;19925;-95
2022/03/25 06:03:47;;;;;;;;;;;;;;;10.43;61.82;101790.69;5263448;23;20919;-96
2022/03/25 06:14:41;;;;;;;;;;;;;;;10.39;63.02;101808.78;5083866;23;19926;-96
2022/03/25 06:17:22;;;;;;;;;;;;;;;10.49;63.09;101810.31;4997153;28;19925;-94
2022/03/25 06:20:07;;;;;;;;;;;;;;;10.52;63.45;101821.00;5005300;28;19918;-93
2022/03/25 06:22:34;;;;;;;;;;;;;;;10.54;63.34;101821.06;5002337;28;20388;-85
2022/03/25 06:24:59;;;;;;;;;;;;;;;10.54;64.50;101818.47;4993998;28;19924;-85
2022/03/25 06:27:25;;;;;;;;;;;;;;;10.42;64.79;101822.84;5041870;28;19917;-86
2022/03/25 06:29:50;;;;;;;;;;;;;;;10.41;64.17;101816.69;5035094;28;19994;-85
2022/03/25 06:32:16;;;;;;;;;;;;;;;10.41;63.97;101819.31;5031094;28;19917;-86
2022/03/25 06:34:41;;;;;;;;;;;;;;;10.39;63.85;101823.50;5017061;28;20019;-87
2022/03/25 06:37:07;;;;;;;;;;;;;;;10.41;63.45;101827.13;5002722;28;20367;-86
2022/03/25 06:39:32;;;;;;;;;;;;;;;10.40;63.11;101820.13;4984874;28;19940;-87
2022/03/25 06:41:58;;;;;;;;;;;;;;;10.43;62.70;101824.63;5012730;28;19918;-87
2022/03/25 06:44:23;;;;;;;;;;;;;;;10.47;62.68;101827.56;5016769;28;19967;-87
2022/03/25 06:46:51;;;;;;;;;;;;;;;10.40;62.68;101833.16;5001074;28;19917;-90
2022/03/25 06:49:18;;;;;;;;;;;;;;;10.43;62.97;101827.25;5000674;28;19961;-88
2022/03/25 06:51:45;;;;;;;;;;;;;;;10.41;63.00;101834.06;5004527;28;20012;-87
2022/03/25 06:54:10;;;;;;;;;;;;;;;10.43;62.94;101842.94;5017251;28;20365;-84
2022/03/25 06:56:36;;;;;;;;;;;;;;;10.41;63.06;101839.28;5017328;28;19918;-88
2022/03/25 06:59:04;;;;;;;;;;;;;;;10.42;62.66;101838.50;5017326;28;19917;-87
2022/03/25 07:01:32;;;;;;;;;;;;;;;10.41;62.56;101839.28;5018532;28;19918;-85
2022/03/25 07:03:58;;;;;;;;;;;;;;;10.42;62.51;101844.63;5004242;28;20024;-86
2022/03/25 07:06:23;;;;;;;;;;;;;;;10.46;62.17;101840.56;5017249;28;20414;-87
2022/03/25 07:08:51;;;;;;;;;;;;;;;10.45;62.29;101842.22;5001191;28;19924;-87
2022/03/25 07:11:16;;;;;;;;;;;;;;;10.43;62.34;101840.31;4988935;28;19929;-87
2022/03/25 07:13:42;;;;;;;;;;;;;;;10.50;62.62;101837.34;4998950;28;19918;-87
2022/03/25 07:16:07;;;;;;;;;;;;;;;10.42;62.65;101846.34;5005438;28;19922;-86
2022/03/25 07:18:34;;;;;;;;;;;;;;;10.42;62.63;101838.50;4998116;28;19921;-86
2022/03/25 07:21:01;;;;;;;;;;;;;;;10.41;62.56;101837.59;5017180;28;19925;-86
2022/03/25 07:23:27;;;;;;;;;;;;;;;10.43;62.84;101838.59;5018162;28;20549;-86
2022/03/25 07:25:52;;;;;;;;;;;;;;;10.42;62.50;101839.41;5018078;28;20012;-86
2022/03/25 07:28:17;;;;;;;;;;;;;;;10.44;62.23;101842.13;5018357;28;19921;-87
2022/03/25 07:30:43;;;;;;;;;;;;;;;10.44;62.46;101844.75;5014643;28;19918;-86
2022/03/25 07:33:08;;;;;;;;;;;;;;;10.45;61.79;101852.66;5014979;28;19952;-85
2022/03/25 07:35:34;;;;;;;;;;;;;;;10.43;62.19;101843.81;5010147;28;19976;-87
2022/03/25 07:37:59;;;;;;;;;;;;;;;10.46;62.62;101846.66;4996459;28;19921;-86
2022/03/25 07:40:24;;;;;;;;;;;;;;;10.48;62.50;101847.69;5013747;28;19918;-88
2022/03/25 07:42:50;;;;;;;;;;;;;;;10.95;61.07;101847.50;4997385;28;19947;-88
2022/03/25 07:45:16;;;;;;;;;;;;;;;11.13;60.39;101841.75;5013236;28;19924;-86
2022/03/25 07:47:44;;;;;;;;;;;;;;;11.20;60.85;101842.28;5012660;28;20016;-88
2022/03/25 07:50:12;;;;;;;;;;;;;;;11.23;60.39;101838.97;5013749;28;19917;-86
2022/03/25 07:52:37;;;;;;;;;;;;;;;11.21;60.71;101835.34;4995208;28;19925;-86
2022/03/25 07:55:03;;;;;;;;;;;;;;;11.19;60.88;101837.84;4992505;28;20478;-87
2022/03/25 07:57:29;;;;;;;;;;;;;;;11.30;61.14;101830.75;4996178;28;20456;-84
2022/03/25 07:59:54;;;;;;;;;;;;;;;11.31;60.81;101847.34;5006884;28;19922;-85
2022/03/25 08:02:20;;;;;;;;;;;;;;;11.33;60.54;101841.41;4992777;28;19929;-86
2022/03/25 08:04:46;;;;;;;;;;;;;;;11.31;60.91;101843.00;4993933;28;19928;-86
2022/03/25 08:07:12;;;;;;;;;;;;;;;11.30;61.39;101825.53;4988356;28;19918;-88
2022/03/25 08:09:38;;;;;;;;;;;;;;;11.31;61.03;101831.66;4996115;28;19922;-85
2022/03/25 08:12:05;;;;;;;;;;;;;;;11.36;61.12;101833.75;5013498;28;19917;-87
2022/03/25 08:14:30;;;;;;;;;;;;;;;11.33;61.09;101836.19;5007194;28;19929;-86
2022/03/25 08:16:56;;;;;;;;;;;;;;;11.32;61.34;101836.06;4977921;28;19930;-87
2022/03/25 08:19:21;;;;;;;;;;;;;;;11.36;61.74;101835.47;4968037;28;19921;-86
2022/03/25 08:21:47;;;;;;;;;;;;;;;11.32;61.40;101833.44;4981604;28;20076;-88
2022/03/25 08:29:40;;;;;;;;;;;;;;;11.34;61.85;101834.47;4999885;28;19924;-87
2022/03/25 08:32:06;;;;;;;;;;;;;;;11.29;62.17;101831.53;4980699;28;20299;-88
2022/03/25 08:34:31;;;;;;;;;;;;;;;11.37;62.07;101832.97;4997717;28;19928;-86
2022/03/25 08:36:57;;;;;;;;;;;;;;;11.35;62.23;101836.28;5012611;28;20379;-86
2022/03/25 08:39:22;;;;;;;;;;;;;;;11.36;62.16;101832.84;5011008;28;19924;-86
2022/03/25 08:41:48;;;;;;;;;;;;;;;11.38;61.95;101834.78;4993405;28;20390;-87
2022/03/25 08:44:14;;;;;;;;;;;;;;;11.43;62.38;101834.19;4976300;28;20302;-87
2022/03/25 08:46:40;;;;;;;;;;;;;;;11.42;61.94;101841.13;4984125;28;19921;-87
2022/03/25 08:49:06;;;;;;;;;;;;;;;11.40;62.27;101840.09;5012798;28;20019;-86
2022/03/25 08:51:31;;;;;;;;;;;;;;;11.41;62.23;101835.00;5011565;28;20302;-86
2022/03/25 08:53:58;;;;;;;;;;;;;;;11.42;62.24;101843.75;5011499;28;19929;-87
2022/03/25 08:56:24;;;;;;;;;;;;;;;11.40;62.70;101843.63;5011349;28;19917;-87
2022/03/25 08:58:50;;;;;;;;;;;;;;;11.44;62.77;101841.22;5011592;28;19924;-84
2022/03/25 09:01:15;;;;;;;;;;;;;;;11.37;62.52;101835.59;5012773;28;19918;-86
2022/03/25 09:03:41;;;;;;;;;;;;;;;11.41;62.65;101837.59;4995116;28;20399;-86
2022/03/25 09:06:06;;;;;;;;;;;;;;;11.36;63.08;101831.13;4995460;28;19928;-87
2022/03/25 09:08:32;;;;;;;;;;;;;;;11.44;62.58;101834.28;4995469;28;19981;-85
2022/03/25 09:10:57;;;;;;;;;;;;;;;11.46;62.68;101826.56;5012602;28;20324;-88
2022/03/25 09:13:23;;;;;;;;;;;;;;;11.47;62.91;101825.72;4994444;28;20012;-86
2022/03/25 09:15:49;;;;;;;;;;;;;;;11.46;62.76;101837.91;4980446;28;19921;-87
2022/03/25 09:18:14;;;;;;;;;;;;;;;11.45;62.85;101832.56;4959502;28;19918;-88
2022/03/25 09:20:39;;;;;;;;;;;;;;;11.48;62.65;101836.31;4976093;28;20353;-88
2022/03/25 09:23:05;;;;;;;;;;;;;;;11.50;62.77;101834.69;4988699;28;19921;-87
2022/03/25 09:25:31;;;;;;;;;;;;;;;11.50;62.55;101839.03;4995102;28;19917;-86
2022/03/25 09:27:57;;;;;;;;;;;;;;;11.48;62.80;101844.16;4991676;28;19926;-86
2022/03/25 09:30:22;;;;;;;;;;;;;;;11.52;62.93;101838.31;4975800;28;20009;-87
2022/03/25 09:32:47;;;;;;;;;;;;;;;11.55;62.75;101832.38;4993076;28;20008;-88
2022/03/25 09:35:14;;;;;;;;;;;;;;;11.54;62.85;101833.22;4992713;28;19957;-87
2022/03/25 09:37:43;;;;;;;;;;;;;;;11.56;62.68;101836.84;4975535;28;19921;-86
2022/03/25 09:40:10;;;;;;;;;;;;;;;11.45;63.08;101829.97;4992976;28;19968;-84
2022/03/25 09:42:36;;;;;;;;;;;;;;;11.45;62.98;101822.09;4959299;28;20307;-87
2022/03/25 09:45:02;;;;;;;;;;;;;;;11.51;62.58;101826.03;4959288;28;20315;-86
2022/03/25 09:47:27;;;;;;;;;;;;;;;11.60;62.55;101825.78;4959178;28;19925;-85
2022/03/25 09:49:53;;;;;;;;;;;;;;;11.60;62.58;101826.66;4985122;28;19940;-86
2022/03/25 09:52:19;;;;;;;;;;;;;;;11.61;62.72;101824.97;4996421;28;19917;-85
2022/03/25 09:54:45;;;;;;;;;;;;;;;11.65;62.68;101826.97;5017328;28;19917;-86
2022/03/25 09:57:10;;;;;;;;;;;;;;;11.61;62.84;101830.19;4993065;28;19957;-85
2022/03/25 09:59:35;;;;;;;;;;;;;;;11.62;62.81;101826.78;4978663;28;19929;-87
2022/03/25 10:02:01;;;;;;;;;;;;;;;11.64;62.89;101829.47;4994450;28;19921;-86
2022/03/25 10:04:43;;;;;;;;;;;;;;;11.60;63.15;101820.53;4986244;28;20548;-88
2022/03/25 10:07:30;;;;;;;;;;;;;;;11.63;62.89;101819.84;4978938;28;19944;-87
2022/03/25 10:10:11;;;;;;;;;;;;;;;11.61;62.61;101822.34;5010564;28;19922;-90
2022/03/25 10:12:46;;;;;;;;;;;;;;;11.56;62.87;101829.88;4993241;28;19921;-90
2022/03/25 10:15:15;;;;;;;;;;;;;;;11.54;62.80;101821.03;4987118;28;19930;-88
2022/03/25 10:17:50;;;;;;;;;;;;;;;11.57;63.15;101823.84;4985948;28;19976;-88
2022/03/25 10:20:28;;;;;;;;;;;;;;;11.61;62.73;101830.19;4981915;28;19981;-89
2022/03/25 10:22:59;;;;;;;;;;;;;;;11.66;62.84;101818.31;4992483;28;20322;-90
2022/03/25 10:25:35;;;;;;;;;;;;;;;11.65;62.99;101823.47;4979284;28;19925;-90
2022/03/25 10:28:02;;;;;;;;;;;;;;;11.69;62.76;101823.75;4986695;28;19925;-90
2022/03/25 10:30:40;;;;;;;;;;;;;;;11.69;62.95;101825.47;4986722;28;20500;-90
2022/03/25 10:33:10;;;;;;;;;;;;;;;11.66;63.30;101825.25;4964352;28;20045;-91
2022/03/25 10:35:55;;;;;;;;;;;;;;;11.70;62.94;101827.28;4975697;28;19925;-91
2022/03/25 10:38:22;;;;;;;;;;;;;;;11.65;63.02;101829.59;4975613;28;20319;-91
2022/03/25 10:40:56;;;;;;;;;;;;;;;11.59;63.29;101827.47;4991828;28;19999;-90
2022/03/25 10:43:24;;;;;;;;;;;;;;;11.68;62.98;101821.03;4991705;28;19922;-89
2022/03/25 10:45:50;;;;;;;;;;;;;;;11.73;63.17;101823.16;4991362;28;19972;-87
2022/03/25 10:48:21;;;;;;;;;;;;;;;11.68;63.05;101827.16;4990807;28;19917;-87
2022/03/25 10:51:10;;;;;;;;;;;;;;;11.70;63.26;101830.78;4990940;28;20001;-88
2022/03/25 10:53:37;;;;;;;;;;;;;;;11.73;63.31;101833.63;4990876;28;19918;-88
2022/03/25 10:56:06;;;;;;;;;;;;;;;11.82;62.98;101830.72;4990998;28;19922;-89
2022/03/25 10:58:34;;;;;;;;;;;;;;;11.69;63.26;101820.25;4974969;28;19976;-90
2022/03/25 11:01:01;;;;;;;;;;;;;;;11.44;63.81;101818.59;4991684;28;20441;-90
2022/03/25 11:03:27;;;;;;;;;;;;;;;11.59;63.21;101814.38;4974849;28;19925;-87
2022/03/25 11:05:59;;;;;;;;;;;;;;;11.65;63.58;101819.13;4993664;28;19918;-90
2022/03/25 11:08:24;;;;;;;;;;;;;;;11.71;63.36;101818.63;4996117;28;19918;-88
2022/03/25 11:11:14;;;;;;;;;;;;;;;11.79;62.74;101822.66;4979119;28;19975;-90
2022/03/25 11:13:45;;;;;;;;;;;;;;;11.79;63.24;101812.19;4995157;28;19917;-90
2022/03/25 11:16:16;;;;;;;;;;;;;;;11.84;63.22;101812.50;5013280;28;20008;-91
2022/03/25 11:18:59;;;;;;;;;;;;;;;11.75;63.53;101818.94;5014650;28;20387;-89
2022/03/25 11:21:27;;;;;;;;;;;;;;;11.73;63.71;101819.66;5014413;28;19913;-89
2022/03/25 11:23:54;;;;;;;;;;;;;;;11.76;63.36;101841.66;5015325;28;19918;-91
2022/03/25 11:26:22;;;;;;;;;;;;;;;11.64;63.67;101822.56;4996981;28;19913;-88
2022/03/25 11:28:52;;;;;;;;;;;;;;;11.89;63.38;101818.97;5014125;28;19937;-88
2022/03/25 11:31:18;;;;;;;;;;;;;;;11.81;63.82;101813.22;4985733;28;19922;-88
2022/03/25 11:34:02;;;;;;;;;;;;;;;11.93;63.30;101808.78;4979939;28;19917;-89
2022/03/25 11:36:27;;;;;;;;;;;;;;;11.95;63.17;101808.88;5012564;28;19952;-88
2022/03/25 11:39:37;;;;;;;;;;;;;;;11.68;63.58;101806.22;4996798;28;19967;-87
2022/03/25 11:42:03;;;;;;;;;;;;;;;11.84;63.60;101808.16;4935023;29;19930;-89
2022/03/25 11:44:29;;;;;;;;;;;;;;;11.73;63.76;101801.31;4932930;29;19923;-87
2022/03/25 11:47:01;;;;;;;;;;;;;;;11.63;64.57;101801.53;4967750;28;20371;-89
2022/03/25 11:49:29;;;;;;;;;;;;;;;12.04;63.60;101808.59;5015652;28;20383;-87
2022/03/25 11:51:55;;;;;;;;;;;;;;;12.06;63.70;101796.50;5013770;28;19921;-85
2022/03/25 11:54:40;;;;;;;;;;;;;;;12.10;63.53;101786.31;4996044;28;19987;-86
2022/03/25 11:57:06;;;;;;;;;;;;;;;12.17;63.39;101790.22;4996612;28;19921;-86
2022/03/25 12:00:02;;;;;;;;;;;;;;;12.24;63.52;101802.91;4995669;28;20398;-87
2022/03/25 12:02:31;;;;;;;;;;;;;;;12.20;63.60;101801.81;4996470;28;20008;-85
2022/03/25 12:04:58;;;;;;;;;;;;;;;12.16;63.80;101806.75;4997024;28;19917;-88
2022/03/25 12:07:24;;;;;;;;;;;;;;;12.22;63.77;101800.19;4996737;28;19924;-88
2022/03/25 12:09:55;;;;;;;;;;;;;;;12.26;63.69;101803.03;4997589;28;19917;-91
2022/03/25 12:12:40;;;;;;;;;;;;;;;12.21;63.72;101800.09;4981095;28;20028;-88
2022/03/25 12:15:07;;;;;;;;;;;;;;;12.34;63.72;101807.00;4996683;28;19921;-90
2022/03/25 12:17:35;;;;;;;;;;;;;;;12.32;63.91;101804.31;4996937;28;19924;-90
2022/03/25 12:20:02;;;;;;;;;;;;;;;12.29;63.51;101814.56;4997321;28;19975;-90
2022/03/25 12:22:29;;;;;;;;;;;;;;;12.38;63.63;101814.25;4980933;28;19917;-91
2022/03/25 12:25:15;;;;;;;;;;;;;;;12.36;63.79;101810.63;4981060;28;19918;-90
2022/03/25 12:27:41;;;;;;;;;;;;;;;12.35;64.02;101801.88;4996987;28;20430;-88
2022/03/25 12:30:08;;;;;;;;;;;;;;;12.41;63.82;101804.00;4997102;28;20338;-91
2022/03/25 12:32:35;;;;;;;;;;;;;;;12.34;64.22;101799.16;4997227;28;19918;-91
2022/03/25 12:35:26;;;;;;;;;;;;;;;12.36;63.86;101806.31;4996973;28;19917;-94
2022/03/25 12:38:00;;;;;;;;;;;;;;;12.38;63.87;101806.41;4997202;28;19917;-92
2022/03/25 12:40:47;;;;;;;;;;;;;;;12.41;64.15;101807.50;5014599;28;19913;-92
2022/03/25 12:43:31;;;;;;;;;;;;;;;12.41;64.15;101797.03;4997221;28;19918;-91
2022/03/25 12:46:01;;;;;;;;;;;;;;;12.33;64.42;101805.22;5008961;28;19956;-91
2022/03/25 12:48:29;;;;;;;;;;;;;;;12.42;64.21;101804.09;4996871;28;19961;-90
2022/03/25 12:51:02;;;;;;;;;;;;;;;12.38;64.21;101814.25;5012910;28;19914;-90
2022/03/25 12:53:31;;;;;;;;;;;;;;;12.38;64.29;101812.56;4980545;28;19927;-91
2022/03/25 12:55:57;;;;;;;;;;;;;;;12.36;64.63;101808.94;4996640;28;20351;-91
2022/03/25 12:58:23;;;;;;;;;;;;;;;12.27;64.61;101807.44;4980302;28;20008;-90
2022/03/25 13:00:52;;;;;;;;;;;;;;;12.37;64.57;101809.84;4996365;28;19961;-88
2022/03/25 13:03:18;;;;;;;;;;;;;;;12.50;64.41;101811.53;4997318;28;19968;-89
2022/03/25 13:05:45;;;;;;;;;;;;;;;12.50;64.12;101811.53;5005245;28;19940;-90
2022/03/25 13:08:11;;;;;;;;;;;;;;;12.50;64.46;101809.78;5000516;28;19956;-89
2022/03/25 13:10:37;;;;;;;;;;;;;;;12.57;65.18;101821.56;4996483;28;19918;-89
2022/03/25 13:13:04;;;;;;;;;;;;;;;12.52;66.01;101815.13;4995996;28;19971;-89
2022/03/25 13:15:31;;;;;;;;;;;;;;;12.53;65.44;101825.72;4979383;28;20012;-89
2022/03/25 13:17:57;;;;;;;;;;;;;;;12.59;65.80;101819.94;4996040;28;19918;-90
2022/03/25 13:20:44;;;;;;;;;;;;;;;12.53;66.14;101824.78;4995942;28;20414;-90
2022/03/25 13:23:14;;;;;;;;;;;;;;;12.58;66.24;101826.91;4996110;28;19917;-90
2022/03/25 13:25:42;;;;;;;;;;;;;;;12.58;67.22;101824.28;4995844;28;19924;-90
2022/03/25 13:28:23;;;;;;;;;;;;;;;12.54;67.10;101830.13;4978502;28;19924;-89
2022/03/25 13:30:49;;;;;;;;;;;;;;;12.50;66.84;101838.63;4995711;28;20395;-88
2022/03/25 13:33:18;;;;;;;;;;;;;;;12.60;67.11;101838.41;4979413;28;19917;-89
2022/03/25 13:35:46;;;;;;;;;;;;;;;12.50;66.96;101838.63;4995535;28;19953;-88
2022/03/25 13:38:23;;;;;;;;;;;;;;;12.52;66.78;101851.81;4979118;28;19924;-88
2022/03/25 13:40:57;;;;;;;;;;;;;;;12.52;66.80;101847.47;4995538;28;20433;-88
2022/03/25 13:43:55;;;;;;;;;;;;;;;12.56;67.11;101859.06;4995339;28;19924;-86
2022/03/25 13:46:24;;;;;;;;;;;;;;;12.56;67.59;101852.09;4951299;28;19918;-88
2022/03/25 13:49:00;;;;;;;;;;;;;;;12.61;67.30;101855.94;4959611;28;19917;-89
2022/03/25 13:51:30;;;;;;;;;;;;;;;12.60;67.33;101850.59;4959638;28;19940;-90
2022/03/25 13:54:17;;;;;;;;;;;;;;;12.59;67.80;101848.78;4975791;28;20397;-88